Time;durP1;ratioP1;P1;durP2;ratioP2;P2;SDS_P1;SDS_P2;PMS_P1;PMS_P2;Temp;Humidity;BMP_temperature;BMP_pressure;BME280_temperature;BME280_humidity;BME280_pressure;Samples;Min_cycle;Max_cycle;Signal;HPM_P1;HPM_P2
2022/03/05 00:01:02;;;;;;;44.05;17.48;;;;;;;-3.62;89.77;94747.34;5110747;27;20175;-48
2022/03/05 00:03:30;;;;;;;36.00;17.02;;;;;;;-3.61;90.33;94743.84;5108962;27;20039;-48
2022/03/05 00:05:57;;;;;;;39.75;17.40;;;;;;;-3.63;90.94;94740.66;5109487;27;20039;-47
2022/03/05 00:08:24;;;;;;;34.05;16.42;;;;;;;-3.69;91.66;94747.94;5111089;27;20047;-46
2022/03/05 00:10:51;;;;;;;41.03;18.23;;;;;;;-3.71;92.49;94749.81;5110979;27;20568;-49
2022/03/05 00:13:18;;;;;;;31.58;17.80;;;;;;;-3.67;92.22;94751.13;5110157;27;20498;-46
2022/03/05 00:15:46;;;;;;;45.08;20.02;;;;;;;-3.66;92.57;94752.72;5111939;27;20146;-45
2022/03/05 00:18:13;;;;;;;39.25;17.92;;;;;;;-3.60;92.80;94747.97;5112280;27;20035;-47
2022/03/05 00:20:40;;;;;;;30.25;16.83;;;;;;;-3.59;92.16;94741.97;5108395;27;20111;-48
2022/03/05 00:23:06;;;;;;;38.33;17.75;;;;;;;-3.61;91.52;94754.03;5109895;27;20035;-45
2022/03/05 00:25:33;;;;;;;30.85;15.90;;;;;;;-3.65;90.84;94749.22;5112239;27;20425;-45
2022/03/05 00:28:00;;;;;;;29.65;15.65;;;;;;;-3.76;90.96;94756.25;5089504;27;20051;-46
2022/03/05 00:30:27;;;;;;;43.70;16.77;;;;;;;-3.84;92.07;94754.44;5110105;27;20093;-46
2022/03/05 00:32:53;;;;;;;35.17;16.80;;;;;;;-3.84;92.62;94754.44;5110141;27;20043;-46
2022/03/05 00:35:20;;;;;;;45.03;17.15;;;;;;;-3.82;92.79;94747.47;5112690;27;20052;-46
2022/03/05 00:37:48;;;;;;;31.58;15.93;;;;;;;-3.80;93.20;94750.66;5093611;27;20513;-47
2022/03/05 00:40:15;;;;;;;35.67;16.30;;;;;;;-3.78;93.62;94751.34;5106643;27;20067;-46
2022/03/05 00:42:42;;;;;;;39.97;18.20;;;;;;;-3.85;93.27;94745.22;5112205;27;20044;-47
2022/03/05 00:45:10;;;;;;;33.50;17.10;;;;;;;-3.84;92.83;94744.28;5112041;27;20048;-47
2022/03/05 00:47:37;;;;;;;32.03;18.58;;;;;;;-3.88;92.55;94742.97;5108209;27;20050;-45
2022/03/05 00:50:05;;;;;;;43.10;17.17;;;;;;;-3.89;93.08;94741.34;5106063;27;20051;-46
2022/03/05 00:52:34;;;;;;;33.47;16.10;;;;;;;-4.01;93.13;94729.81;5105786;27;20055;-46
2022/03/05 00:55:02;;;;;;;39.90;15.82;;;;;;;-3.96;93.19;94737.78;5108648;27;20428;-46
2022/03/05 00:57:28;;;;;;;32.33;17.83;;;;;;;-3.97;92.95;94739.53;5112998;27;20048;-46
2022/03/05 00:59:55;;;;;;;30.60;15.00;;;;;;;-3.97;92.71;94738.75;5112693;27;20043;-46
2022/03/05 01:02:22;;;;;;;39.55;14.90;;;;;;;-4.03;93.36;94735.81;5090917;28;20564;-46
2022/03/05 01:04:49;;;;;;;40.17;19.02;;;;;;;-4.04;93.83;94726.56;5114093;27;20135;-47
2022/03/05 01:07:16;;;;;;;33.38;16.92;;;;;;;-4.05;94.23;94735.16;5111276;27;20047;-47
2022/03/05 01:09:43;;;;;;;36.00;17.25;;;;;;;-3.99;94.15;94730.47;5112473;27;20028;-48
2022/03/05 01:12:09;;;;;;;40.10;18.95;;;;;;;-3.97;94.16;94736.19;5112055;27;20050;-46
2022/03/05 01:14:37;;;;;;;39.03;18.33;;;;;;;-4.03;94.27;94730.72;5111776;27;20047;-47
2022/03/05 01:17:04;;;;;;;36.67;16.52;;;;;;;-4.05;94.66;94740.25;5111529;27;20039;-47
2022/03/05 01:19:32;;;;;;;39.33;18.20;;;;;;;-4.06;95.40;94731.00;5111131;27;20036;-45
2022/03/05 01:21:59;;;;;;;45.40;17.73;;;;;;;-4.00;95.90;94723.75;5109895;27;20096;-49
2022/03/05 01:24:25;;;;;;;35.88;17.90;;;;;;;-3.98;95.63;94726.94;5109946;27;20047;-49
2022/03/05 01:26:52;;;;;;;42.88;19.50;;;;;;;-3.98;95.83;94726.94;5109652;27;20043;-47
2022/03/05 01:29:19;;;;;;;37.40;18.33;;;;;;;-3.93;95.66;94728.13;5110094;27;20401;-46
2022/03/05 01:31:46;;;;;;;42.10;18.35;;;;;;;-3.94;94.66;94724.00;5110458;27;20039;-46
2022/03/05 01:34:13;;;;;;;39.67;19.45;;;;;;;-3.99;94.38;94721.06;5110400;27;20044;-46
2022/03/05 01:36:40;;;;;;;40.25;17.45;;;;;;;-4.00;94.02;94727.09;5110771;27;20051;-45
2022/03/05 01:39:08;;;;;;;32.95;17.40;;;;;;;-4.05;93.69;94722.44;5109366;27;20035;-50
2022/03/05 01:41:37;;;;;;;41.42;20.10;;;;;;;-4.19;93.79;94730.56;5109151;27;20443;-46
2022/03/05 01:44:05;;;;;;;42.83;19.45;;;;;;;-4.22;94.77;94726.53;5111388;27;20046;-48
2022/03/05 01:46:38;;;;;;;35.53;17.33;;;;;;;-4.16;95.07;94730.28;5111511;27;20089;-47
2022/03/05 01:49:08;;;;;;;41.15;17.17;;;;;;;-4.13;94.56;94737.63;5109933;27;20040;-48
2022/03/05 01:51:36;;;;;;;46.33;18.10;;;;;;;-4.16;95.12;94735.38;5110797;27;20137;-47
2022/03/05 01:54:04;;;;;;;48.72;19.60;;;;;;;-4.09;95.49;94731.31;5111834;27;20068;-46
2022/03/05 01:56:31;;;;;;;41.88;17.80;;;;;;;-4.02;94.75;94721.34;5109943;27;20140;-47
2022/03/05 01:58:59;;;;;;;33.35;17.08;;;;;;;-3.92;94.13;94723.84;5112172;27;20040;-47
2022/03/05 02:01:27;;;;;;;30.80;17.45;;;;;;;-3.96;93.95;94725.06;5110379;27;20040;-47
2022/03/05 02:03:55;;;;;;;35.63;18.38;;;;;;;-4.10;94.52;94709.34;5112356;27;20042;-48
2022/03/05 02:06:23;;;;;;;39.65;16.70;;;;;;;-3.99;94.62;94726.16;5109781;27;20032;-46
2022/03/05 02:08:50;;;;;;;30.90;16.98;;;;;;;-4.03;94.84;94724.84;5110005;27;20039;-45
2022/03/05 02:11:17;;;;;;;37.80;18.23;;;;;;;-4.01;95.25;94727.25;5110846;27;20069;-46
2022/03/05 02:13:44;;;;;;;41.63;17.38;;;;;;;-4.03;95.67;94714.69;5109034;27;20055;-46
2022/03/05 02:16:11;;;;;;;40.58;16.35;;;;;;;-3.91;95.92;94722.88;5109526;27;20035;-45
2022/03/05 02:18:38;;;;;;;30.38;17.10;;;;;;;-3.88;96.43;94728.50;5114598;27;20046;-48
2022/03/05 02:21:05;;;;;;;42.08;16.92;;;;;;;-3.82;96.88;94722.00;5113513;27;20057;-46
2022/03/05 02:23:31;;;;;;;35.50;18.48;;;;;;;-3.76;96.84;94724.00;5109896;27;20035;-47
2022/03/05 02:26:01;;;;;;;35.78;17.38;;;;;;;-3.68;96.75;94724.06;5109415;27;20100;-48
2022/03/05 02:28:28;;;;;;;34.22;16.75;;;;;;;-3.61;96.21;94728.59;5110003;27;20043;-47
2022/03/05 02:30:55;;;;;;;28.38;15.75;;;;;;;-3.55;95.77;94727.97;5111421;27;20039;-47
2022/03/05 02:33:22;;;;;;;32.33;17.50;;;;;;;-3.52;95.38;94727.69;5109679;27;20063;-46
2022/03/05 02:35:49;;;;;;;37.13;17.73;;;;;;;-3.53;95.55;94731.19;5087393;28;20047;-49
2022/03/05 02:38:18;;;;;;;41.30;18.52;;;;;;;-3.48;95.80;94734.09;5110468;27;20047;-49
2022/03/05 02:40:46;;;;;;;33.15;16.67;;;;;;;-3.46;95.81;94722.00;5109085;27;20051;-46
2022/03/05 02:43:14;;;;;;;36.70;17.08;;;;;;;-3.40;95.35;94721.44;5109854;27;20104;-51
2022/03/05 02:45:42;;;;;;;30.17;15.20;;;;;;;-3.42;95.39;94722.50;5109697;27;20130;-47
2022/03/05 02:48:12;;;;;;;36.42;16.33;;;;;;;-3.50;95.73;94713.06;5110146;27;20051;-46
2022/03/05 02:50:40;;;;;;;38.10;16.70;;;;;;;-3.42;95.99;94727.59;5109178;27;20063;-48
2022/03/05 02:53:07;;;;;;;31.35;16.70;;;;;;;-3.39;96.45;94730.66;5109396;27;20039;-47
2022/03/05 02:55:35;;;;;;;46.17;19.55;;;;;;;-3.34;96.66;94725.13;5107886;27;20851;-46
2022/03/05 02:58:03;;;;;;;44.25;17.85;;;;;;;-3.28;96.64;94722.81;5109700;27;20044;-50
2022/03/05 03:00:30;;;;;;;31.60;16.55;;;;;;;-3.24;96.29;94730.13;5109753;27;20040;-47
2022/03/05 03:02:57;;;;;;;42.47;15.60;;;;;;;-3.25;96.12;94728.56;5112534;27;20138;-48
2022/03/05 03:05:25;;;;;;;38.88;17.13;;;;;;;-3.20;95.92;94731.47;5110531;27;20051;-50
2022/03/05 03:07:52;;;;;;;37.13;17.27;;;;;;;-3.17;95.67;94733.69;5109719;27;20043;-45
2022/03/05 03:10:20;;;;;;;38.17;17.67;;;;;;;-3.10;95.10;94737.25;5108156;27;20124;-46
2022/03/05 03:12:47;;;;;;;34.22;16.58;;;;;;;-3.13;94.98;94737.56;5108186;27;20058;-48
2022/03/05 03:15:15;;;;;;;32.10;15.13;;;;;;;-3.15;95.45;94736.88;5108125;27;20036;-50
2022/03/05 03:17:46;;;;;;;36.70;17.20;;;;;;;-3.19;95.23;94727.94;5108348;27;20493;-48
2022/03/05 03:20:16;;;;;;;31.05;16.00;;;;;;;-3.18;95.77;94734.66;5109971;27;20047;-46
2022/03/05 03:22:43;;;;;;;38.35;17.08;;;;;;;-3.22;96.00;94723.13;5110075;27;20043;-46
2022/03/05 03:25:12;;;;;;;28.48;14.73;;;;;;;-3.16;96.33;94733.53;5111282;27;20044;-46
2022/03/05 03:27:40;;;;;;;33.88;15.52;;;;;;;-3.12;96.38;94739.13;5109783;28;20081;-46
2022/03/05 03:30:09;;;;;;;36.45;16.98;;;;;;;-3.06;95.25;94738.56;5113694;28;20466;-47
2022/03/05 03:32:36;;;;;;;33.47;14.70;;;;;;;-3.13;94.41;94724.81;5107721;28;20531;-46
2022/03/05 03:35:05;;;;;;;45.75;17.15;;;;;;;-3.07;94.47;94742.03;5106544;28;20100;-46
2022/03/05 03:37:33;;;;;;;30.65;14.73;;;;;;;-3.23;94.20;94721.56;5107818;28;20055;-47
2022/03/05 03:40:01;;;;;;;36.92;15.57;;;;;;;-3.16;94.44;94737.84;5106761;28;20528;-49
2022/03/05 03:42:28;;;;;;;27.48;14.18;;;;;;;-3.12;94.58;94739.94;5107197;28;20046;-46
2022/03/05 03:44:55;;;;;;;38.28;16.42;;;;;;;-3.12;94.39;94739.94;5112464;28;20412;-46
2022/03/05 03:47:22;;;;;;;33.20;16.80;;;;;;;-3.14;94.59;94738.50;5107176;28;20497;-47
2022/03/05 03:49:50;;;;;;;34.53;17.08;;;;;;;-3.08;94.45;94746.34;5110785;28;20058;-46
2022/03/05 03:52:17;;;;;;;35.78;16.52;;;;;;;-3.08;94.74;94746.34;5107300;28;20080;-47
2022/03/05 03:54:46;;;;;;;32.60;16.80;;;;;;;-3.05;94.73;94747.78;5107198;28;20101;-47
2022/03/05 03:57:13;;;;;;;44.50;15.90;;;;;;;-3.05;94.92;94745.25;5108197;28;20543;-46
2022/03/05 03:59:40;;;;;;;31.92;17.13;;;;;;;-3.02;94.47;94744.94;5107855;28;20505;-46
2022/03/05 04:02:08;;;;;;;40.47;17.98;;;;;;;-3.04;94.32;94740.94;5106212;28;20420;-46
2022/03/05 04:04:35;;;;;;;39.67;17.58;;;;;;;-3.03;94.40;94747.66;5109992;28;20474;-47
2022/03/05 04:09:48;;;;;;;37.70;17.67;;;;;;;-3.06;94.20;94753.84;5110973;28;20062;-47
2022/03/05 04:12:15;;;;;;;46.10;19.25;;;;;;;-3.08;93.95;94746.34;5109787;28;20084;-46
2022/03/05 04:14:42;;;;;;;38.90;16.98;;;;;;;-3.09;93.67;94751.59;5109222;28;20044;-46
2022/03/05 04:17:09;;;;;;;39.13;17.40;;;;;;;-3.16;93.33;94737.84;5112558;28;20588;-47
2022/03/05 04:19:36;;;;;;;44.63;21.92;;;;;;;-3.15;93.08;94750.44;5118844;28;20409;-47
2022/03/05 04:22:03;;;;;;;33.45;17.52;;;;;;;-3.14;93.15;94756.31;5112259;28;20027;-48
2022/03/05 04:24:30;;;;;;;41.33;17.92;;;;;;;-3.20;92.95;94756.94;5110109;28;20092;-47
2022/03/05 04:26:57;;;;;;;40.42;18.27;;;;;;;-3.24;92.59;94753.06;5109443;28;20036;-47
2022/03/05 04:29:24;;;;;;;34.97;17.52;;;;;;;-3.27;92.44;94749.06;5108176;28;21833;-46
2022/03/05 04:31:51;;;;;;;51.10;18.17;;;;;;;-3.33;92.49;94742.81;5109030;28;20043;-48
2022/03/05 04:34:19;;;;;;;37.05;17.42;;;;;;;-3.35;92.71;94749.81;5107340;28;20120;-47
2022/03/05 04:36:46;;;;;;;40.45;17.20;;;;;;;-3.42;93.32;94751.34;5111235;28;20066;-47
2022/03/05 04:39:12;;;;;;;29.48;14.73;;;;;;;-3.43;93.21;94757.38;5107691;28;20050;-47
2022/03/05 04:41:39;;;;;;;37.80;15.32;;;;;;;-3.53;93.34;94756.63;5112047;28;20051;-47
2022/03/05 04:44:07;;;;;;;35.47;18.23;;;;;;;-3.61;93.50;94754.03;5110888;27;20495;-49
2022/03/05 04:46:33;;;;;;;41.42;19.90;;;;;;;-3.65;93.66;94759.41;5111416;27;20039;-46
2022/03/05 04:49:01;;;;;;;33.05;15.77;;;;;;;-3.73;94.21;94761.88;5111816;27;20053;-47
2022/03/05 04:51:29;;;;;;;37.38;17.33;;;;;;;-3.70;94.46;94751.41;5112453;27;20040;-47
2022/03/05 04:53:56;;;;;;;30.25;14.57;;;;;;;-3.78;94.42;94753.06;5111209;27;20051;-48
2022/03/05 04:56:23;;;;;;;34.88;15.55;;;;;;;-3.84;94.71;94742.50;5091439;27;20047;-47
2022/03/05 04:58:49;;;;;;;42.35;18.35;;;;;;;-3.88;95.40;94742.97;5113040;27;20043;-50
2022/03/05 05:01:18;;;;;;;34.08;15.00;;;;;;;-3.88;95.69;94750.59;5113460;27;20047;-48
2022/03/05 05:03:46;;;;;;;38.33;15.13;;;;;;;-3.88;95.63;94753.16;5110450;27;20205;-49
2022/03/05 05:06:13;;;;;;;30.55;15.70;;;;;;;-3.95;96.07;94741.94;5115995;27;20058;-49
2022/03/05 05:08:40;;;;;;;26.92;13.98;;;;;;;-3.84;96.17;94764.63;5116589;27;20125;-46
2022/03/05 05:11:07;;;;;;;28.92;13.80;;;;;;;-3.81;95.86;94771.97;5111043;27;20460;-47
2022/03/05 05:13:34;;;;;;;31.48;16.83;;;;;;;-3.82;95.67;94783.09;5110914;27;20081;-48
2022/03/05 05:16:01;;;;;;;27.30;14.77;;;;;;;-3.77;95.63;94778.38;5110722;27;20508;-48
2022/03/05 05:18:28;;;;;;;39.33;17.58;;;;;;;-3.77;95.30;94786.00;5111087;27;20048;-48
2022/03/05 05:20:55;;;;;;;34.83;15.68;;;;;;;-3.72;95.57;94778.75;5109771;27;20458;-48
2022/03/05 05:23:22;;;;;;;47.97;20.35;;;;;;;-3.71;95.34;94785.47;5110005;27;20109;-47
2022/03/05 05:25:49;;;;;;;32.63;16.20;;;;;;;-3.68;95.87;94786.91;5109582;27;20051;-47
2022/03/05 05:28:17;;;;;;;32.78;15.30;;;;;;;-3.65;96.51;94792.50;5109776;27;20039;-47
2022/03/05 05:30:46;;;;;;;27.27;14.77;;;;;;;-3.60;96.63;94793.81;5110255;27;20047;-48
2022/03/05 05:33:13;;;;;;;35.70;16.70;;;;;;;-3.55;96.50;94794.19;5110299;27;20517;-46
2022/03/05 05:35:40;;;;;;;30.58;14.77;;;;;;;-3.51;96.54;94795.47;5110060;27;20047;-48
2022/03/05 05:38:07;;;;;;;26.83;15.63;;;;;;;-3.46;96.97;94806.03;5104511;27;20047;-47
2022/03/05 05:40:34;;;;;;;27.52;13.32;;;;;;;-3.34;97.08;94802.34;5105930;27;20046;-50
2022/03/05 05:43:01;;;;;;;32.33;15.93;;;;;;;-3.28;96.93;94811.97;5104610;27;20058;-47
2022/03/05 05:45:28;;;;;;;30.75;15.10;;;;;;;-3.13;96.94;94819.09;5110727;27;20070;-48
2022/03/05 05:47:55;;;;;;;32.13;16.48;;;;;;;-2.98;96.22;94817.59;5092483;27;20497;-47
2022/03/05 05:50:22;;;;;;;34.40;15.60;;;;;;;-2.86;96.46;94825.00;5096332;27;20081;-49
2022/03/05 05:52:49;;;;;;;29.10;15.00;;;;;;;-2.76;96.89;94825.72;5104277;27;20101;-46
2022/03/05 05:55:16;;;;;;;36.33;16.33;;;;;;;-2.64;97.23;94824.53;5097686;27;20519;-49
2022/03/05 05:57:42;;;;;;;49.80;23.23;;;;;;;-2.53;97.41;94839.59;5108616;27;20548;-49
2022/03/05 06:00:10;;;;;;;51.88;27.25;;;;;;;-2.39;97.75;94837.44;5109996;27;20104;-48
2022/03/05 06:02:42;;;;;;;44.67;21.65;;;;;;;-2.30;97.55;94836.53;5089179;27;20505;-48
2022/03/05 06:05:09;;;;;;;46.28;21.25;;;;;;;-2.13;97.47;94830.53;5104069;27;20510;-47
2022/03/05 06:07:37;;;;;;;35.90;19.33;;;;;;;-2.01;97.38;94832.84;5105090;27;20104;-45
2022/03/05 06:10:05;;;;;;;36.35;18.98;;;;;;;-1.90;96.85;94837.69;5105456;27;20050;-46
2022/03/05 06:12:32;;;;;;;36.90;18.83;;;;;;;-1.81;96.42;94836.75;5087374;27;20043;-45
2022/03/05 06:14:59;;;;;;;35.22;17.83;;;;;;;-1.72;96.41;94835.03;5101878;27;20112;-46
2022/03/05 06:17:25;;;;;;;37.67;19.73;;;;;;;-1.55;96.86;94846.09;5106669;27;20552;-46
2022/03/05 06:19:52;;;;;;;37.45;17.45;;;;;;;-1.38;96.80;94852.84;5103929;27;20040;-50
2022/03/05 06:22:19;;;;;;;35.55;16.83;;;;;;;-1.18;96.67;94850.00;5105489;27;20048;-47
2022/03/05 06:24:46;;;;;;;35.85;17.98;;;;;;;-1.01;95.35;94851.63;5107382;27;20052;-47
2022/03/05 06:27:13;;;;;;;40.60;19.83;;;;;;;-0.82;94.26;94849.72;5107958;27;20072;-47
2022/03/05 06:29:39;;;;;;;41.10;19.60;;;;;;;-0.68;93.49;94853.41;5107938;27;20043;-50
2022/03/05 06:32:07;;;;;;;38.20;17.52;;;;;;;-0.53;92.65;94849.22;5110615;27;20479;-47
2022/03/05 06:34:34;;;;;;;43.83;20.42;;;;;;;-0.30;91.03;94857.03;5108302;27;20482;-46
2022/03/05 06:37:01;;;;;;;46.53;21.90;;;;;;;-0.13;90.60;94862.13;5109256;27;20051;-47
2022/03/05 06:39:28;;;;;;;54.88;27.23;;;;;;;0.00;89.90;94847.06;5107938;27;20160;-46
2022/03/05 06:41:57;;;;;;;73.45;32.95;;;;;;;0.21;88.65;94858.50;5108226;27;20035;-47
2022/03/05 06:44:24;;;;;;;53.70;24.25;;;;;;;0.35;87.36;94860.38;5108174;27;20036;-47
2022/03/05 06:46:50;;;;;;;59.10;20.38;;;;;;;0.52;86.28;94851.63;5108533;27;20035;-46
2022/03/05 06:49:18;;;;;;;50.15;23.58;;;;;;;0.69;84.98;94852.34;5108325;27;20039;-50
2022/03/05 06:51:44;;;;;;;43.47;20.27;;;;;;;0.84;83.73;94857.53;5103459;27;20477;-47
2022/03/05 06:54:11;;;;;;;41.13;20.80;;;;;;;1.03;81.64;94860.66;5107365;27;20531;-47
2022/03/05 06:56:38;;;;;;;62.30;31.38;;;;;;;1.18;77.47;94861.47;5103690;27;20052;-47
2022/03/05 06:59:05;;;;;;;80.80;39.00;;;;;;;1.33;74.76;94859.78;5106694;27;20092;-50
2022/03/05 07:01:34;;;;;;;55.85;23.23;;;;;;;1.44;73.18;94856.00;5105725;27;20036;-50
2022/03/05 07:04:01;;;;;;;40.60;21.92;;;;;;;1.53;71.52;94869.53;5112208;27;20131;-48
2022/03/05 07:06:28;;;;;;;52.42;22.73;;;;;;;1.68;71.66;94870.38;5105414;27;20059;-47
2022/03/05 07:08:54;;;;;;;47.03;20.45;;;;;;;1.78;68.19;94877.81;5108248;27;20048;-46
2022/03/05 07:11:21;;;;;;;93.80;53.97;;;;;;;1.86;66.92;94866.69;5106973;27;20036;-48
2022/03/05 07:13:48;;;;;;;51.95;25.00;;;;;;;1.96;67.14;94864.66;5108644;27;20509;-47
2022/03/05 07:16:15;;;;;;;44.97;20.73;;;;;;;2.12;68.20;94868.03;5107088;27;20054;-46
2022/03/05 07:18:42;;;;;;;41.70;20.67;;;;;;;2.28;67.09;94867.84;5107649;27;20055;-47
2022/03/05 07:21:09;;;;;;;64.53;30.58;;;;;;;2.33;64.15;94873.25;5111472;27;20036;-46
2022/03/05 07:23:35;;;;;;;74.60;29.52;;;;;;;2.39;64.13;94867.38;5107584;27;20043;-49
2022/03/05 07:26:02;;;;;;;46.88;21.52;;;;;;;2.41;62.19;94857.75;5107207;27;20082;-46
2022/03/05 07:28:29;;;;;;;45.35;21.92;;;;;;;2.47;61.66;94857.03;5107794;28;20504;-48
2022/03/05 07:30:56;;;;;;;56.75;30.73;;;;;;;2.45;61.35;94853.84;5110086;27;20517;-47
2022/03/05 07:33:23;;;;;;;42.35;21.98;;;;;;;2.01;59.29;94849.50;5109845;28;20035;-52
2022/03/05 07:35:50;;;;;;;61.38;30.42;;;;;;;1.68;61.04;94852.41;5107544;28;20039;-49
2022/03/05 07:38:17;;;;;;;57.08;25.05;;;;;;;1.82;61.07;94855.16;5107581;28;20039;-47
2022/03/05 07:40:44;;;;;;;108.57;50.67;;;;;;;1.75;62.08;94849.13;5105925;28;20504;-47
2022/03/05 07:43:14;;;;;;;68.13;36.47;;;;;;;1.96;61.67;94858.72;5102206;28;20096;-47
2022/03/05 07:45:40;;;;;;;49.22;21.95;;;;;;;2.02;62.31;94848.53;5101540;28;20035;-47
2022/03/05 07:48:08;;;;;;;59.80;26.77;;;;;;;2.06;62.82;94844.63;5101936;28;20047;-50
2022/03/05 07:50:34;;;;;;;34.17;17.48;;;;;;;2.04;61.48;94856.88;5105274;28;20469;-48
2022/03/05 07:53:01;;;;;;;44.35;19.35;;;;;;;2.32;61.61;94853.66;5102166;28;20121;-47
2022/03/05 07:55:28;;;;;;;105.28;46.15;;;;;;;2.37;60.88;94851.34;5100366;28;20043;-47
2022/03/05 07:57:55;;;;;;;47.17;22.55;;;;;;;2.53;61.16;94854.72;5105317;28;20120;-47
2022/03/05 08:00:22;;;;;;;66.07;30.42;;;;;;;2.55;60.98;94863.81;5104406;28;20047;-48
2022/03/05 08:02:50;;;;;;;102.57;47.63;;;;;;;2.43;59.55;94858.38;5115185;28;20139;-46
2022/03/05 08:05:17;;;;;;;56.08;27.38;;;;;;;2.27;61.11;94856.00;5110100;28;20063;-48
2022/03/05 08:07:44;;;;;;;47.10;21.52;;;;;;;2.19;61.17;94853.50;5099496;28;20051;-46
2022/03/05 08:10:10;;;;;;;54.08;25.08;;;;;;;2.25;61.08;94847.63;5103471;28;20040;-47
2022/03/05 08:12:37;;;;;;;55.15;20.65;;;;;;;2.35;61.39;94842.25;5111829;28;20055;-49
2022/03/05 08:15:06;;;;;;;45.13;19.35;;;;;;;2.62;60.23;94849.28;5107411;28;20063;-47
2022/03/05 08:17:32;;;;;;;45.03;21.85;;;;;;;2.78;59.88;94855.97;5095635;28;20422;-47
2022/03/05 08:19:59;;;;;;;50.33;22.33;;;;;;;2.89;59.83;94848.78;5104578;27;20047;-47
2022/03/05 08:22:27;;;;;;;43.42;19.75;;;;;;;3.13;58.68;94856.13;5109856;27;20044;-48
2022/03/05 08:24:55;;;;;;;34.75;18.00;;;;;;;3.24;59.00;94860.81;5113629;27;20058;-49
2022/03/05 08:27:22;;;;;;;41.50;21.42;;;;;;;2.92;58.77;94861.25;5102591;27;20130;-49
2022/03/05 08:29:49;;;;;;;62.10;28.23;;;;;;;3.17;58.95;94854.78;5105799;27;20043;-46
2022/03/05 08:32:15;;;;;;;24.33;12.25;;;;;;;3.06;58.13;94853.50;5106378;27;20035;-47
2022/03/05 08:34:42;;;;;;;30.80;17.27;;;;;;;2.80;58.99;94869.44;5104426;27;20070;-47
2022/03/05 08:37:09;;;;;;;42.90;18.60;;;;;;;2.99;59.11;94864.69;5107018;27;20527;-48
2022/03/05 08:39:36;;;;;;;39.38;19.52;;;;;;;3.14;58.26;94859.50;5104498;27;20043;-47
2022/03/05 08:42:03;;;;;;;49.53;24.83;;;;;;;3.27;58.64;94851.13;5087166;27;20044;-46
2022/03/05 08:44:30;;;;;;;25.98;14.52;;;;;;;3.37;58.79;94851.59;5102330;27;20039;-48
2022/03/05 08:46:57;;;;;;;34.05;17.27;;;;;;;3.55;58.79;94864.81;5107198;27;20048;-49
2022/03/05 08:49:24;;;;;;;34.90;17.60;;;;;;;3.81;58.96;94863.41;5110633;27;20044;-47
2022/03/05 08:51:51;;;;;;;39.05;18.52;;;;;;;3.99;58.34;94863.72;5113099;27;20035;-48
2022/03/05 08:54:20;;;;;;;33.30;19.13;;;;;;;4.26;58.13;94866.47;5110041;27;20119;-49
2022/03/05 08:56:48;;;;;;;36.53;18.00;;;;;;;4.48;57.49;94858.63;5111551;27;20047;-47
2022/03/05 08:59:15;;;;;;;46.75;21.65;;;;;;;4.40;57.08;94852.66;5109055;27;20081;-46
2022/03/05 09:01:41;;;;;;;47.95;19.95;;;;;;;4.62;56.37;94864.66;5112224;27;20059;-49
2022/03/05 09:04:09;;;;;;;41.42;19.33;;;;;;;4.75;56.16;94860.34;5110693;27;20043;-49
2022/03/05 09:06:35;;;;;;;35.25;16.50;;;;;;;4.93;56.20;94861.56;5110059;27;20500;-47
2022/03/05 09:09:02;;;;;;;43.13;16.70;;;;;;;5.14;56.51;94858.84;5110044;27;20039;-46
2022/03/05 09:11:29;;;;;;;33.47;15.50;;;;;;;5.41;54.89;94858.88;5108960;27;20047;-47
2022/03/05 09:13:56;;;;;;;28.40;14.98;;;;;;;5.57;54.87;94864.66;5112367;27;20044;-47
2022/03/05 09:16:23;;;;;;;35.70;15.43;;;;;;;5.76;54.31;94861.25;5108977;27;20043;-46
2022/03/05 09:18:50;;;;;;;37.80;16.02;;;;;;;5.75;53.07;94863.06;5108901;27;20062;-51
2022/03/05 09:21:17;;;;;;;30.23;15.70;;;;;;;5.77;53.13;94864.66;5115756;27;20054;-49
2022/03/05 09:23:44;;;;;;;30.45;15.27;;;;;;;5.90;54.05;94865.44;5109600;27;20678;-48
2022/03/05 09:26:14;;;;;;;30.65;16.02;;;;;;;6.13;53.59;94869.41;5107000;27;20048;-48
2022/03/05 09:28:42;;;;;;;31.58;15.10;;;;;;;6.14;52.29;94865.84;5108122;27;20048;-47
2022/03/05 09:31:08;;;;;;;28.58;15.18;;;;;;;6.19;51.46;94855.66;5105224;27;20473;-48
2022/03/05 09:33:35;;;;;;;32.83;16.20;;;;;;;6.38;51.20;94863.59;5108021;27;20089;-47
2022/03/05 09:36:03;;;;;;;35.70;16.05;;;;;;;6.47;51.54;94857.19;5112066;27;20779;-48
2022/03/05 09:38:29;;;;;;;34.33;16.05;;;;;;;6.77;50.76;94856.66;5109866;27;20039;-47
2022/03/05 09:40:56;;;;;;;39.95;18.35;;;;;;;6.89;50.25;94857.63;5107646;27;20065;-47
2022/03/05 09:43:23;;;;;;;36.90;16.65;;;;;;;7.16;49.96;94854.88;5109198;27;20063;-46
2022/03/05 09:45:51;;;;;;;32.85;16.35;;;;;;;7.48;49.10;94842.72;5115182;27;20035;-47
2022/03/05 09:48:18;;;;;;;35.90;17.52;;;;;;;7.59;47.59;94849.03;5111391;27;20521;-46
2022/03/05 09:50:45;;;;;;;31.13;16.10;;;;;;;7.60;48.49;94850.63;5111781;27;20058;-46
2022/03/05 09:53:12;;;;;;;32.83;15.43;;;;;;;7.75;48.34;94843.31;5111385;27;20401;-46
2022/03/05 09:55:39;;;;;;;33.88;17.52;;;;;;;7.83;47.47;94839.63;5111178;27;20505;-46
2022/03/05 09:58:26;;;;;;;29.15;15.13;;;;;;;7.92;46.93;94827.19;5110186;27;20118;-46
2022/03/05 10:00:53;;;;;;;33.03;15.63;;;;;;;8.12;47.25;94833.00;5106521;27;20062;-48
2022/03/05 10:03:22;;;;;;;29.80;16.55;;;;;;;8.30;48.01;94828.81;5109823;27;20523;-48
2022/03/05 10:05:49;;;;;;;32.80;16.38;;;;;;;8.67;46.28;94839.22;5106416;27;20135;-49
2022/03/05 10:08:19;;;;;;;35.05;18.00;;;;;;;8.98;45.98;94831.25;5110017;27;20048;-47
2022/03/05 10:11:01;;;;;;;39.17;17.83;;;;;;;9.32;44.48;94841.94;5111597;27;20077;-47
2022/03/05 10:13:33;;;;;;;42.00;18.90;;;;;;;9.38;43.55;94830.66;5109265;27;20055;-47
2022/03/05 10:16:22;;;;;;;33.47;16.42;;;;;;;9.20;44.62;94794.38;5113044;27;20066;-50
2022/03/05 10:18:49;;;;;;;29.40;15.30;;;;;;;9.40;45.81;94827.03;5110456;27;20550;-47
2022/03/05 10:21:16;;;;;;;41.55;20.27;;;;;;;9.53;45.31;94821.66;5113984;27;20047;-46
2022/03/05 10:23:47;;;;;;;34.92;17.63;;;;;;;9.32;45.93;94818.53;5109253;27;20054;-48
2022/03/05 10:26:15;;;;;;;27.92;14.55;;;;;;;9.30;45.90;94828.38;5110658;27;20048;-47
2022/03/05 10:28:42;;;;;;;22.10;14.40;;;;;;;9.40;46.30;94821.84;5110903;27;20047;-47
2022/03/05 10:31:11;;;;;;;29.70;16.60;;;;;;;9.47;46.29;94817.31;5109828;27;20558;-48
2022/03/05 10:33:47;;;;;;;31.40;15.85;;;;;;;9.34;47.07;94823.53;5113854;27;20051;-48
2022/03/05 10:36:25;;;;;;;45.05;21.75;;;;;;;9.05;49.67;94825.16;5110851;27;20488;-50
2022/03/05 10:38:55;;;;;;;40.42;18.15;;;;;;;8.89;50.45;94826.56;5110059;27;20032;-50
2022/03/05 10:41:31;;;;;;;33.58;16.30;;;;;;;8.94;51.32;94824.88;5107728;27;20080;-47
2022/03/05 10:44:17;;;;;;;40.22;17.13;;;;;;;8.87;52.26;94813.78;5103425;27;20048;-47
2022/03/05 10:46:47;;;;;;;17.42;10.93;;;;;;;8.96;52.22;94815.06;5110757;27;20039;-47
2022/03/05 10:49:19;;;;;;;41.72;21.00;;;;;;;8.93;51.48;94815.50;5105754;27;20051;-46
2022/03/05 10:51:51;;;;;;;55.70;19.00;;;;;;;8.81;51.60;94804.28;5110552;27;20504;-46
2022/03/05 10:54:27;;;;;;;76.97;27.88;;;;;;;8.80;51.27;94813.06;5104095;27;20047;-49
2022/03/05 10:57:05;;;;;;;70.72;28.65;;;;;;;8.77;52.09;94809.13;5101572;27;20053;-48
2022/03/05 10:59:38;;;;;;;48.40;20.35;;;;;;;8.77;52.23;94797.97;5108323;27;20107;-47
2022/03/05 11:02:10;;;;;;;99.70;37.63;;;;;;;8.88;51.28;94799.78;5107620;27;20046;-49
2022/03/05 11:04:45;;;;;;;83.65;32.13;;;;;;;8.63;51.72;94793.94;5107081;27;20123;-46
2022/03/05 11:07:16;;;;;;;51.58;24.23;;;;;;;8.34;53.12;94793.66;5107435;27;20513;-49
2022/03/05 11:09:44;;;;;;;74.97;33.38;;;;;;;8.16;53.23;94787.44;5111256;27;20047;-46
2022/03/05 11:12:19;;;;;;;65.03;32.83;;;;;;;8.05;53.60;94790.78;5108785;27;20043;-47
2022/03/05 11:14:48;;;;;;;36.45;20.42;;;;;;;7.79;54.25;94787.41;5109945;27;20043;-51
2022/03/05 11:17:15;;;;;;;35.55;20.88;;;;;;;7.56;55.71;94782.84;5110201;27;20702;-47
2022/03/05 11:19:43;;;;;;;34.75;17.92;;;;;;;7.36;55.99;94775.22;5113306;27;20558;-48
2022/03/05 11:22:11;;;;;;;24.05;13.50;;;;;;;7.16;57.09;94782.38;5112984;27;20140;-47
2022/03/05 11:24:40;;;;;;;26.92;14.25;;;;;;;7.07;58.21;94780.03;5108107;27;20464;-49